Time;durP1;ratioP1;P1;durP2;ratioP2;P2;SDS_P1;SDS_P2;PMS_P1;PMS_P2;Temp;Humidity;BMP_temperature;BMP_pressure;BME280_temperature;BME280_humidity;BME280_pressure;Samples;Min_cycle;Max_cycle;Signal;HPM_P1;HPM_P2
2022/08/12 00:45:06;;;;;;;11.70;4.72;;;;;;;22.51;57.96;101933.88;4924022;29;20039;-82
2022/08/12 00:47:32;;;;;;;10.25;4.30;;;;;;;22.48;57.92;101939.81;4921272;29;20035;-81
2022/08/12 00:49:58;;;;;;;10.43;4.40;;;;;;;22.39;58.27;101940.41;4919938;29;20387;-81
2022/08/12 00:52:25;;;;;;;13.55;4.57;;;;;;;22.41;58.24;101950.06;4916155;29;20032;-80
2022/08/12 00:54:56;;;;;;;8.15;4.72;;;;;;;22.33;58.48;101953.16;4930778;29;20051;-80
2022/08/12 00:57:34;;;;;;;14.35;4.75;;;;;;;22.32;58.69;101955.03;4938591;29;20487;-81
2022/08/12 01:00:21;;;;;;;9.35;4.70;;;;;;;22.26;58.67;101947.75;4937810;29;20050;-80
2022/08/12 01:02:51;;;;;;;14.65;5.50;;;;;;;22.27;58.82;101952.16;4920943;29;20700;-82
2022/08/12 01:13:56;;;;;;;12.02;5.10;;;;;;;22.12;59.34;101951.72;4921569;29;20194;-82
2022/08/12 01:16:22;;;;;;;7.07;4.97;;;;;;;22.08;59.79;101956.00;4936370;29;20039;-81
2022/08/12 01:18:48;;;;;;;9.20;4.82;;;;;;;22.07;59.85;101959.81;4914365;29;20039;-82
2022/08/12 01:21:25;;;;;;;9.00;4.65;;;;;;;22.06;59.86;101958.13;4918182;29;20095;-82
2022/08/12 01:23:54;;;;;;;;;;;;;;;21.98;60.07;101950.22;4937308;29;20032;-82
2022/08/12 01:26:24;;;;;;;13.10;4.30;;;;;;;21.97;59.80;101954.03;4936391;29;19933;-83
2022/08/12 01:29:02;;;;;;;9.95;4.53;;;;;;;21.97;59.83;101952.13;4919421;29;20028;-81
2022/08/12 01:31:29;;;;;;;14.18;4.57;;;;;;;21.92;60.29;101952.81;4920560;29;20051;-82
2022/08/12 01:33:58;;;;;;;20.35;5.07;;;;;;;21.91;60.20;101951.16;4920332;29;20044;-81
2022/08/12 01:36:27;;;;;;;12.05;4.88;;;;;;;21.95;59.96;101950.69;4906859;29;20126;-80
2022/08/12 01:38:55;;;;;;;9.52;4.63;;;;;;;21.89;59.88;101946.97;4940328;29;20090;-81
2022/08/12 01:41:24;;;;;;;8.93;4.85;;;;;;;21.85;60.06;101943.00;4938270;29;20024;-82
2022/08/12 01:43:51;;;;;;;10.57;4.38;;;;;;;21.84;60.45;101944.91;4929727;29;20039;-81
2022/08/12 01:46:23;;;;;;;12.20;4.75;;;;;;;21.83;60.13;101936.94;4936727;29;20118;-80
2022/08/12 01:49:09;;;;;;;10.93;4.75;;;;;;;21.85;60.28;101935.66;4938357;29;20040;-81
2022/08/12 01:51:41;;;;;;;10.60;4.40;;;;;;;21.74;60.25;101922.69;4922423;29;20038;-83
2022/08/12 01:54:13;;;;;;;10.57;4.50;;;;;;;21.79;60.41;101935.72;4925229;29;20030;-81
2022/08/12 01:56:44;;;;;;;11.60;4.78;;;;;;;21.76;60.18;101931.53;4922832;29;20036;-83
2022/08/12 02:02:03;;;;;;;8.10;4.57;;;;;;;21.79;60.05;101927.50;4928912;29;20058;-81
2022/08/12 02:11:16;;;;;;;7.97;4.70;;;;;;;21.75;60.21;101923.53;4923349;29;20047;-82
2022/08/12 02:14:05;;;;;;;20.67;5.72;;;;;;;21.75;60.37;101923.53;4915469;29;20071;-81
2022/08/12 02:16:45;;;;;;;9.15;4.90;;;;;;;21.70;60.62;101910.53;4902341;29;20030;-82
2022/08/12 02:19:38;;;;;;;9.85;4.60;;;;;;;21.67;60.75;101916.50;4924504;29;20059;-81
2022/08/12 02:22:21;;;;;;;15.63;5.85;;;;;;;21.64;60.91;101917.78;4940202;29;20533;-82
2022/08/12 02:24:48;;;;;;;9.07;4.90;;;;;;;21.63;60.81;101916.09;4926186;29;20027;-83
2022/08/12 02:27:16;;;;;;;14.48;4.85;;;;;;;21.61;61.07;101918.22;4921567;29;20067;-81
2022/08/12 02:29:41;;;;;;;;;;;;;;;21.60;60.85;101921.22;4921926;29;20058;-83
2022/08/12 02:32:09;;;;;;;12.70;4.90;;;;;;;21.54;61.01;101909.25;4939493;29;20251;-83
2022/08/12 02:34:34;;;;;;;13.10;4.95;;;;;;;21.50;61.05;101910.78;4996578;23;20139;-74
2022/08/12 02:37:01;;;;;;;13.93;4.50;;;;;;;21.52;61.24;101908.66;4921744;29;20066;-72
2022/08/12 02:39:29;;;;;;;9.95;4.75;;;;;;;21.50;61.15;101904.47;4954517;29;20030;-74
2022/08/12 02:41:56;;;;;;;12.05;4.95;;;;;;;21.51;61.08;101912.44;4955587;29;20023;-74
2022/08/12 02:44:22;;;;;;;;;;;;;;;21.48;61.18;101902.81;4937488;29;20057;-76
2022/08/12 02:46:52;;;;;;;13.50;4.90;;;;;;;21.44;61.51;101900.75;4941253;29;19927;-75
2022/08/12 02:49:22;;;;;;;12.65;4.57;;;;;;;21.42;61.46;101902.88;4937484;29;20042;-74
2022/08/12 02:51:48;;;;;;;17.55;6.13;;;;;;;21.44;61.28;101906.22;4949750;29;20050;-76
2022/08/12 02:54:14;;;;;;;12.27;5.22;;;;;;;21.41;61.66;101906.69;4954785;29;20035;-75
2022/08/12 02:56:40;;;;;;;7.82;4.47;;;;;;;21.40;61.38;101894.03;4956519;29;20153;-75
2022/08/12 02:59:15;;;;;;;10.02;5.28;;;;;;;21.41;61.43;101895.72;4955813;29;20034;-74
2022/08/12 03:01:45;;;;;;;10.95;4.70;;;;;;;21.37;61.63;101897.22;4938904;29;20035;-75
2022/08/12 03:04:15;;;;;;;11.27;4.93;;;;;;;21.36;61.64;101892.81;4952448;29;20031;-74
2022/08/12 03:06:45;;;;;;;10.95;5.30;;;;;;;21.33;61.95;101887.75;4938570;29;20032;-73
2022/08/12 03:09:13;;;;;;;12.10;5.30;;;;;;;21.30;61.69;101885.47;4954906;29;20078;-75
2022/08/12 03:11:41;;;;;;;13.80;5.10;;;;;;;21.33;61.95;101879.53;4935616;29;20043;-75
2022/08/12 03:14:12;;;;;;;7.80;4.97;;;;;;;21.28;62.14;101880.25;4937907;29;20082;-75
2022/08/12 03:16:38;;;;;;;10.15;5.40;;;;;;;21.32;61.81;101883.38;4954344;29;20098;-75
2022/08/12 03:19:05;;;;;;;10.27;4.72;;;;;;;21.31;61.95;101887.19;4931520;29;20428;-76
2022/08/12 03:21:33;;;;;;;10.40;5.10;;;;;;;21.29;62.13;101886.56;4945956;29;20031;-74
2022/08/12 03:23:59;;;;;;;15.85;5.00;;;;;;;21.26;62.21;101888.69;4950042;29;20558;-74
2022/08/12 03:26:27;;;;;;;17.40;5.03;;;;;;;21.23;62.12;101888.31;4922126;29;20036;-75
2022/08/12 03:28:55;;;;;;;11.27;4.57;;;;;;;21.22;62.43;101895.69;4922285;29;20038;-76
2022/08/12 03:31:24;;;;;;;14.40;5.32;;;;;;;21.22;62.12;101886.63;4926194;29;20202;-73
2022/08/12 03:33:50;;;;;;;11.50;4.90;;;;;;;21.21;62.21;101885.78;4944691;28;20075;-75
2022/08/12 03:36:19;;;;;;;11.73;5.45;;;;;;;21.18;62.33;101888.97;4918272;29;20028;-73
2022/08/12 03:38:57;;;;;;;10.15;5.40;;;;;;;21.15;62.82;101886.72;4949682;28;20077;-73
2022/08/12 03:41:34;;;;;;;12.30;5.05;;;;;;;21.09;62.89;101878.56;4950123;29;20035;-73
2022/08/12 04:00:45;;;;;;;8.00;5.53;;;;;;;20.85;63.88;101877.53;4949927;29;20050;-74
2022/08/12 04:03:51;;;;;;;14.63;6.40;;;;;;;20.79;64.13;101876.53;4936615;29;20028;-74
2022/08/12 04:05:56;;;;;;;8.25;5.20;;;;;;;20.80;64.14;101879.06;4928455;29;20044;-74
2022/08/12 04:08:25;;;;;;;12.43;6.30;;;;;;;20.74;64.61;101874.47;4919193;29;20029;-73
2022/08/12 04:13:36;;;;;;;18.50;5.93;;;;;;;20.70;64.89;101865.06;4923161;29;20043;-75
2022/08/12 04:16:05;;;;;;;11.55;5.72;;;;;;;20.74;64.95;101873.63;4927752;29;20040;-73
2022/08/12 04:18:31;;;;;;;11.65;6.07;;;;;;;20.74;65.04;101873.63;4939487;29;20031;-73
2022/08/12 04:20:57;;;;;;;10.40;5.38;;;;;;;20.74;64.96;101871.72;4937675;29;20103;-75
2022/08/12 04:23:23;;;;;;;10.45;5.70;;;;;;;20.68;65.44;101878.13;4902488;29;20036;-74
2022/08/12 04:25:49;;;;;;;10.80;5.82;;;;;;;20.71;65.33;101869.44;4916485;29;20048;-74
2022/08/12 04:28:14;;;;;;;18.00;5.85;;;;;;;20.73;65.54;101872.81;4936988;29;20024;-76
2022/08/12 04:30:40;;;;;;;16.73;5.85;;;;;;;20.74;65.60;101866.25;4941029;29;20503;-75
2022/08/12 04:33:08;;;;;;;19.70;6.25;;;;;;;20.76;65.27;101869.63;4939218;29;20083;-74
2022/08/12 04:35:34;;;;;;;9.43;6.00;;;;;;;20.71;65.75;101861.25;4944210;29;20628;-73
2022/08/12 04:37:59;;;;;;;21.25;6.80;;;;;;;20.71;65.82;101869.44;4929056;29;20511;-74
2022/08/12 04:40:28;;;;;;;8.75;6.07;;;;;;;20.71;66.16;101866.72;4937731;29;20035;-74
2022/08/12 04:42:54;;;;;;;11.98;5.55;;;;;;;20.70;65.77;101873.25;4920660;29;20583;-76
2022/08/12 04:45:20;;;;;;;16.35;6.70;;;;;;;20.72;65.91;101875.75;4947251;29;21791;-75
2022/08/12 04:47:46;;;;;;;10.50;5.60;;;;;;;20.69;66.26;101881.69;4939681;29;20035;-74
2022/08/12 04:50:16;;;;;;;12.82;6.50;;;;;;;20.71;66.51;101879.56;4939094;29;20036;-74
2022/08/12 04:52:41;;;;;;;13.90;6.90;;;;;;;20.74;66.32;101871.72;4938241;29;20023;-75
2022/08/12 04:55:17;;;;;;;15.07;6.60;;;;;;;20.71;66.71;101869.44;4940779;29;20024;-75
2022/08/12 04:57:42;;;;;;;9.95;6.07;;;;;;;20.73;66.90;101872.81;4924180;29;20406;-74
2022/08/12 05:00:12;;;;;;;11.30;6.25;;;;;;;20.75;67.13;101878.06;4953235;29;20035;-75
2022/08/12 05:02:38;;;;;;;11.90;6.70;;;;;;;20.67;66.97;101879.19;4939592;29;20027;-74
2022/08/12 05:05:04;;;;;;;17.23;7.22;;;;;;;20.68;67.22;101883.59;4935673;29;20553;-74
2022/08/12 05:07:30;;;;;;;15.75;6.80;;;;;;;20.73;67.62;101882.91;4923729;29;20357;-74
2022/08/12 05:09:55;;;;;;;13.38;6.93;;;;;;;20.75;67.27;101886.28;4951426;29;20035;-73
2022/08/12 05:12:22;;;;;;;14.13;7.13;;;;;;;20.70;67.26;101883.38;4943333;29;20046;-76
2022/08/12 05:14:49;;;;;;;15.50;7.55;;;;;;;20.75;67.51;101886.28;4919586;29;20090;-75
2022/08/12 05:17:14;;;;;;;13.93;7.00;;;;;;;20.74;67.59;101882.69;4951779;29;20034;-75
2022/08/12 05:19:41;;;;;;;13.13;6.85;;;;;;;20.78;67.73;101892.13;4940424;29;20032;-75
2022/08/12 05:22:06;;;;;;;13.85;6.15;;;;;;;20.85;67.27;101896.69;4918866;29;20030;-74
2022/08/12 05:24:31;;;;;;;13.15;7.43;;;;;;;20.90;67.12;101899.59;4937806;29;20031;-75
2022/08/12 05:26:57;;;;;;;15.07;7.50;;;;;;;20.87;67.40;101889.94;4937890;29;20088;-75
2022/08/12 05:29:22;;;;;;;15.43;7.38;;;;;;;20.93;67.61;101899.13;4920596;29;20039;-75
2022/08/12 05:31:48;;;;;;;16.77;7.15;;;;;;;20.93;67.28;101893.66;4924400;29;20024;-74
2022/08/12 05:34:14;;;;;;;9.77;6.45;;;;;;;20.99;67.45;101895.50;4938714;29;20043;-74
2022/08/12 05:36:42;;;;;;;14.20;6.72;;;;;;;21.00;67.14;101897.19;4919245;29;20115;-77
2022/08/12 05:39:08;;;;;;;11.27;6.18;;;;;;;21.07;67.50;101899.88;4937237;29;20028;-75
2022/08/12 05:41:34;;;;;;;18.35;7.63;;;;;;;21.11;67.11;101896.41;4945527;29;20034;-75
2022/08/12 05:44:06;;;;;;;10.63;6.60;;;;;;;21.18;67.25;101891.72;4951905;29;20459;-75
2022/08/12 05:46:32;;;;;;;11.82;6.72;;;;;;;21.23;66.77;101897.34;4924529;29;20672;-75
2022/08/12 05:48:59;;;;;;;9.23;6.10;;;;;;;21.29;67.24;101894.78;4938888;29;20039;-75
2022/08/12 05:51:27;;;;;;;11.98;6.68;;;;;;;21.40;66.73;101900.34;4920209;29;20068;-76
2022/08/12 05:53:53;;;;;;;9.35;6.82;;;;;;;21.46;66.34;101893.13;4934582;29;20436;-75
2022/08/12 05:56:23;;;;;;;12.75;6.68;;;;;;;21.60;65.90;101893.81;4927222;29;20031;-75
2022/08/12 05:58:50;;;;;;;12.60;6.70;;;;;;;22.00;65.02;101894.09;4938293;29;20071;-74
2022/08/12 06:01:16;;;;;;;14.20;6.60;;;;;;;22.57;62.54;101893.69;4937315;29;20043;-77
2022/08/12 06:03:42;;;;;;;12.15;6.90;;;;;;;23.32;60.08;101905.88;4919295;29;20085;-76
2022/08/12 06:06:09;;;;;;;12.15;6.18;;;;;;;24.21;57.43;101902.75;4935544;29;20055;-74
2022/08/12 06:08:35;;;;;;;9.82;6.28;;;;;;;25.29;54.27;101903.41;4944199;29;20059;-75
2022/08/12 06:11:03;;;;;;;10.32;6.15;;;;;;;26.19;50.28;101900.31;4955027;29;20466;-74
2022/08/12 06:13:28;;;;;;;14.60;5.85;;;;;;;26.53;49.24;101905.63;4916519;29;20032;-75
2022/08/12 06:15:54;;;;;;;11.73;5.50;;;;;;;27.23;47.45;101910.03;4926427;29;20253;-74
2022/08/12 06:18:20;;;;;;;18.38;5.30;;;;;;;27.74;46.32;101904.69;4950589;29;20102;-73
2022/08/12 06:20:48;;;;;;;9.52;5.80;;;;;;;28.18;44.68;101908.97;4942759;29;20091;-73
2022/08/12 06:23:14;;;;;;;17.42;6.38;;;;;;;28.48;43.26;101913.72;4943155;29;20027;-74
2022/08/12 06:25:41;;;;;;;16.25;6.70;;;;;;;28.83;43.04;101915.66;4943849;29;20031;-76
2022/08/12 06:28:16;;;;;;;15.65;6.57;;;;;;;29.33;41.82;101907.50;4924885;29;20226;-75
2022/08/12 06:30:47;;;;;;;16.58;6.07;;;;;;;29.77;41.16;101901.25;4922016;29;20431;-75
2022/08/12 06:33:12;;;;;;;19.02;6.18;;;;;;;29.85;40.52;101897.03;4919292;29;20467;-75
2022/08/12 06:35:40;;;;;;;15.27;6.22;;;;;;;30.15;39.72;101896.03;4936227;29;20031;-75
2022/08/12 06:38:14;;;;;;;13.60;6.35;;;;;;;30.58;39.20;101899.03;4934439;29;20025;-75
2022/08/12 06:43:24;;;;;;;9.68;6.03;;;;;;;30.88;37.50;101889.59;4935479;29;20042;-76
2022/08/12 06:45:50;;;;;;;12.60;6.70;;;;;;;30.99;37.19;101895.88;4936743;29;20090;-74
2022/08/12 06:48:16;;;;;;;15.43;6.47;;;;;;;31.04;37.05;101893.03;4951900;29;20027;-76
2022/08/12 06:50:43;;;;;;;13.80;7.03;;;;;;;31.55;35.74;101900.81;4938290;29;20423;-74
2022/08/12 06:53:09;;;;;;;11.80;5.88;;;;;;;31.51;35.80;101902.50;4932057;29;20374;-75
2022/08/12 06:55:35;;;;;;;10.80;6.55;;;;;;;31.72;35.25;101894.72;4938307;29;20027;-75
2022/08/12 06:58:03;;;;;;;19.43;8.03;;;;;;;31.39;36.20;101907.69;4930555;29;20696;-75
2022/08/12 07:00:32;;;;;;;16.52;7.63;;;;;;;31.79;35.62;101897.13;4917636;29;20079;-76
2022/08/12 07:02:58;;;;;;;13.52;6.55;;;;;;;31.90;35.08;101901.41;4937645;29;20023;-76
2022/08/12 07:05:24;;;;;;;15.95;6.97;;;;;;;31.78;35.14;101903.81;4935722;29;20035;-75
2022/08/12 07:08:12;;;;;;;15.07;7.40;;;;;;;31.94;34.59;101896.94;4934134;29;20067;-73
2022/08/12 07:10:44;;;;;;;16.60;7.78;;;;;;;32.14;33.96;101891.03;4937293;29;20032;-75
2022/08/12 07:13:10;;;;;;;21.90;7.68;;;;;;;32.17;34.58;101895.19;4937006;29;20513;-76
2022/08/12 07:15:36;;;;;;;24.00;8.27;;;;;;;32.07;34.45;101884.19;4918719;29;20380;-76
2022/08/12 07:18:08;;;;;;;17.55;8.25;;;;;;;32.24;34.47;101890.06;4935188;29;20036;-75
2022/08/12 07:20:34;;;;;;;16.88;6.90;;;;;;;32.41;34.19;101895.06;4921384;29;20388;-75
2022/08/12 07:23:04;;;;;;;17.80;7.70;;;;;;;32.64;33.51;101892.47;4935126;29;20038;-75
2022/08/12 07:25:30;;;;;;;18.75;8.75;;;;;;;32.70;33.13;101891.25;4923458;29;20031;-77
2022/08/12 07:27:56;;;;;;;20.88;9.00;;;;;;;32.44;33.57;101897.25;4939554;29;20043;-73
2022/08/12 07:30:22;;;;;;;16.08;6.88;;;;;;;32.34;34.31;101892.69;4934525;29;20454;-73
2022/08/12 07:32:50;;;;;;;18.70;9.37;;;;;;;32.47;33.55;101887.47;4933783;29;20119;-74
2022/08/12 07:35:17;;;;;;;22.95;7.80;;;;;;;33.29;32.36;101895.16;4934110;29;20046;-74
2022/08/12 07:37:43;;;;;;;24.75;7.75;;;;;;;33.38;31.73;101893.28;4915604;29;20567;-73
2022/08/12 07:40:10;;;;;;;17.03;7.60;;;;;;;33.39;32.00;101886.56;4933425;29;20124;-73
2022/08/12 07:42:37;;;;;;;17.38;7.18;;;;;;;33.53;32.81;101894.09;4933226;29;20051;-74
2022/08/12 07:45:03;;;;;;;18.70;7.57;;;;;;;34.05;30.98;101908.59;4932302;29;20035;-75
2022/08/12 07:47:29;;;;;;;18.05;6.80;;;;;;;34.32;31.12;101893.69;4926534;29;20439;-73
2022/08/12 07:49:55;;;;;;;17.27;8.65;;;;;;;34.55;30.69;101894.50;4914434;29;20040;-74
2022/08/12 07:52:21;;;;;;;23.95;8.43;;;;;;;34.82;30.38;101901.91;4933440;29;20483;-73
2022/08/12 07:54:46;;;;;;;17.63;6.53;;;;;;;33.92;31.01;101907.50;4933978;29;20071;-75
2022/08/12 07:57:14;;;;;;;17.70;7.97;;;;;;;33.97;30.58;101904.56;4933250;29;20050;-74
2022/08/12 07:59:39;;;;;;;21.00;8.23;;;;;;;34.02;30.56;101909.19;4931907;29;20487;-74
2022/08/12 08:02:08;;;;;;;27.77;8.47;;;;;;;34.25;29.89;101908.09;4925843;29;20110;-73
2022/08/12 08:07:19;;;;;;;16.20;7.43;;;;;;;35.12;28.44;101910.63;4914452;29;20432;-74
2022/08/12 08:09:44;;;;;;;26.38;10.07;;;;;;;35.08;28.41;101912.44;4923614;29;20027;-74
2022/08/12 08:14:54;;;;;;;23.58;8.05;;;;;;;35.48;27.52;101910.41;4932892;29;20115;-75
2022/08/12 08:17:20;;;;;;;25.17;8.88;;;;;;;35.35;27.37;101916.97;4934415;29;20040;-76
2022/08/12 08:19:51;;;;;;;27.27;9.30;;;;;;;35.81;26.85;101907.19;4933080;29;20388;-75
2022/08/12 08:22:18;;;;;;;19.08;7.97;;;;;;;35.67;26.87;101898.94;4933683;29;20039;-76
2022/08/12 08:24:44;;;;;;;20.27;6.68;;;;;;;35.87;27.11;101908.69;4933651;29;20040;-75
2022/08/12 08:27:10;;;;;;;17.95;8.30;;;;;;;35.73;27.32;101905.19;4938136;29;20356;-76
2022/08/12 08:29:35;;;;;;;21.50;8.50;;;;;;;35.90;27.05;101899.63;4936635;29;20030;-75
2022/08/12 08:32:04;;;;;;;22.80;7.37;;;;;;;35.77;27.28;101904.22;4936762;29;20031;-75
2022/08/12 08:34:30;;;;;;;16.70;7.75;;;;;;;36.35;25.95;101909.69;4937018;29;20124;-75
2022/08/12 08:36:55;;;;;;;27.27;8.90;;;;;;;36.22;25.81;101909.53;4937056;29;20102;-74
2022/08/12 08:39:21;;;;;;;19.70;7.87;;;;;;;35.97;27.26;101913.13;4936213;29;20111;-75
2022/08/12 08:44:35;;;;;;;32.55;8.88;;;;;;;36.12;26.47;101903.44;4931679;29;20043;-75
2022/08/12 08:47:02;;;;;;;26.88;7.90;;;;;;;36.12;26.89;101892.22;4920389;29;20024;-74
2022/08/12 08:49:27;;;;;;;18.40;8.25;;;;;;;36.36;26.17;101912.13;4915411;29;20023;-74
2022/08/12 08:51:53;;;;;;;33.23;8.87;;;;;;;35.46;27.22;101901.50;4937200;29;20037;-74
2022/08/12 08:54:18;;;;;;;25.57;8.00;;;;;;;36.03;26.34;101906.22;4938401;29;20043;-74
2022/08/12 08:56:45;;;;;;;15.17;7.40;;;;;;;36.43;26.02;101906.84;4937361;29;20032;-75
2022/08/12 08:59:11;;;;;;;21.85;7.63;;;;;;;36.56;26.62;101904.25;4936226;29;20062;-74
2022/08/12 09:01:37;;;;;;;16.75;7.65;;;;;;;37.31;24.80;101897.03;4940245;29;20038;-75
2022/08/12 09:04:02;;;;;;;20.10;7.50;;;;;;;37.05;26.02;101899.13;4911444;29;20023;-74
2022/08/12 09:06:28;;;;;;;19.45;7.50;;;;;;;37.46;25.30;101903.19;4935939;29;20537;-74
2022/08/12 09:08:53;;;;;;;20.37;7.77;;;;;;;38.03;23.31;101905.47;4936938;29;20099;-74
2022/08/12 09:14:06;;;;;;;21.27;8.13;;;;;;;38.46;23.40;101901.44;4938529;29;20541;-75
2022/08/12 09:16:35;;;;;;;14.80;6.68;;;;;;;38.93;23.17;101903.91;4937257;29;20036;-75
2022/08/12 09:19:00;;;;;;;13.50;7.00;;;;;;;39.16;22.29;101895.00;4927721;29;20035;-74
2022/08/12 09:21:27;;;;;;;14.73;6.63;;;;;;;39.30;22.25;101901.09;4930631;29;20027;-75
2022/08/12 09:24:00;;;;;;;18.50;7.22;;;;;;;39.11;22.79;101893.25;4935449;29;20452;-75
2022/08/12 09:26:29;;;;;;;29.23;7.07;;;;;;;39.29;22.28;101896.66;4937247;29;20031;-74
2022/08/12 09:28:55;;;;;;;20.00;7.32;;;;;;;38.96;22.76;101908.00;4939507;29;20032;-77
2022/08/12 09:31:21;;;;;;;30.48;7.03;;;;;;;38.67;23.55;101897.75;4937158;29;20111;-76
2022/08/12 09:33:46;;;;;;;25.40;6.78;;;;;;;37.94;23.66;101901.88;4927363;29;20159;-77
2022/08/12 09:36:13;;;;;;;19.67;7.20;;;;;;;38.34;23.76;101893.78;4915589;29;20028;-73
2022/08/12 09:38:39;;;;;;;12.38;6.50;;;;;;;39.01;22.08;101894.53;4929351;29;20407;-75
2022/08/12 09:41:05;;;;;;;18.23;6.60;;;;;;;39.42;21.10;101891.81;4940241;29;20023;-73
2022/08/12 09:46:16;;;;;;;18.95;6.95;;;;;;;38.76;22.36;101887.19;4921722;29;20127;-76
2022/08/12 09:48:43;;;;;;;14.52;7.03;;;;;;;39.31;21.97;101885.81;4925973;29;20035;-77
2022/08/12 09:51:08;;;;;;;22.50;6.85;;;;;;;38.70;22.38;101877.34;4936973;29;20035;-74
2022/08/12 09:53:34;;;;;;;19.25;7.25;;;;;;;38.86;22.79;101876.28;4932410;29;20059;-75
2022/08/12 09:56:01;;;;;;;17.37;6.40;;;;;;;39.05;21.50;101878.59;4936867;29;20043;-73
2022/08/12 09:58:28;;;;;;;20.20;6.45;;;;;;;39.04;21.79;101871.28;4936022;29;20447;-74
2022/08/12 10:01:01;;;;;;;21.40;6.10;;;;;;;39.77;20.62;101855.50;4920422;29;20305;-74
2022/08/12 10:03:36;;;;;;;27.50;7.50;;;;;;;39.39;20.64;101864.38;4935439;29;20502;-75
2022/08/12 10:06:04;;;;;;;24.95;6.25;;;;;;;39.13;21.58;101853.47;4934763;29;20039;-75
2022/08/12 10:08:30;;;;;;;21.23;6.30;;;;;;;39.42;21.73;101858.03;4935843;29;20328;-74
2022/08/12 10:13:41;;;;;;;20.77;6.53;;;;;;;38.75;22.54;101849.81;4920565;29;20042;-74
2022/08/12 10:16:16;;;;;;;17.05;6.60;;;;;;;37.75;22.35;101852.63;4934446;29;20031;-74
2022/08/12 10:18:44;;;;;;;20.35;7.22;;;;;;;38.61;21.63;101852.97;4929966;29;20040;-75
2022/08/12 10:21:14;;;;;;;20.15;6.18;;;;;;;38.96;22.12;101852.53;4936257;29;20403;-75
2022/08/12 10:23:42;;;;;;;25.08;7.13;;;;;;;38.59;22.12;101846.84;4935501;29;20063;-74
2022/08/12 10:31:37;;;;;;;13.35;5.70;;;;;;;39.11;21.71;101847.38;4953801;29;20043;-78
2022/08/12 10:34:04;;;;;;;14.73;5.93;;;;;;;38.86;21.56;101850.16;4935866;29;20048;-79
2022/08/12 10:36:33;;;;;;;22.63;6.88;;;;;;;39.18;21.42;101836.31;4918951;29;20040;-75
2022/08/12 10:38:58;;;;;;;26.33;6.70;;;;;;;38.60;21.35;101840.06;4930959;29;20505;-75
2022/08/12 10:44:11;;;;;;;21.63;6.55;;;;;;;38.99;20.92;101834.94;4939625;29;20038;-78
2022/08/12 10:46:37;;;;;;;18.35;5.80;;;;;;;39.10;20.92;101828.84;4938432;29;20031;-75
2022/08/12 10:49:03;;;;;;;18.13;6.95;;;;;;;39.38;21.02;101835.38;4920659;29;20330;-79
2022/08/12 10:51:29;;;;;;;24.17;6.55;;;;;;;39.56;20.40;101835.13;4949971;29;20034;-77
2022/08/12 10:53:55;;;;;;;23.30;6.75;;;;;;;39.30;19.97;101839.13;4956925;29;20057;-75
2022/08/12 10:56:21;;;;;;;12.80;5.72;;;;;;;38.82;20.39;101830.34;4954934;29;20471;-76
2022/08/12 10:58:47;;;;;;;23.58;5.82;;;;;;;39.04;19.98;101826.25;4953618;29;20043;-76
2022/08/12 11:01:13;;;;;;;12.43;6.40;;;;;;;38.59;21.57;101821.53;4935416;29;20125;-76
2022/08/12 11:03:40;;;;;;;22.15;6.38;;;;;;;39.27;21.31;101823.78;4954418;29;20467;-76
2022/08/12 11:06:07;;;;;;;16.38;6.45;;;;;;;39.48;20.88;101820.81;4937939;29;20313;-79
2022/08/12 11:08:34;;;;;;;20.83;5.93;;;;;;;39.65;20.07;101810.44;4939022;29;20039;-76
2022/08/12 11:11:00;;;;;;;23.10;6.32;;;;;;;39.81;20.52;101814.13;4934082;29;20038;-75
2022/08/12 11:13:26;;;;;;;;;;;;;;;39.05;18.12;101815.81;4921402;29;20031;-74
2022/08/12 11:15:54;;;;;;;14.07;5.33;;;;;;;38.52;18.50;101804.41;4939522;29;19957;-75
2022/08/12 11:18:21;;;;;;;16.40;5.43;;;;;;;38.30;19.12;101807.66;4935759;29;20748;-77
2022/08/12 11:20:47;;;;;;;30.00;6.93;;;;;;;37.89;20.40;101809.34;4932947;29;20387;-77
2022/08/12 11:23:12;;;;;;;22.60;6.35;;;;;;;38.00;20.76;101799.38;4934357;29;20028;-75
2022/08/12 11:25:38;;;;;;;11.40;6.27;;;;;;;38.22;21.56;101796.13;4934146;29;20024;-75
2022/08/12 11:28:03;;;;;;;20.17;5.73;;;;;;;38.66;18.87;101786.41;4936354;29;20039;-75
2022/08/12 11:30:28;;;;;;;17.97;5.73;;;;;;;38.75;18.97;101789.91;4939129;29;20054;-76
2022/08/12 11:32:54;;;;;;;13.60;5.57;;;;;;;38.41;18.98;101777.91;4934722;29;20283;-76
2022/08/12 11:35:20;;;;;;;12.00;5.93;;;;;;;38.18;18.52;101783.97;4937429;29;20036;-76
2022/08/12 11:37:45;;;;;;;;;;;;;;;38.59;18.57;101787.78;4935047;29;20039;-77
2022/08/12 11:40:11;;;;;;;19.20;5.67;;;;;;;38.33;17.26;101778.81;4939964;29;20256;-78
2022/08/12 11:42:36;;;;;;;22.50;6.50;;;;;;;37.86;18.51;101777.16;4934930;29;20341;-76
2022/08/12 11:45:03;;;;;;;26.87;6.13;;;;;;;37.23;19.19;101777.16;4933402;29;20386;-76
2022/08/12 11:47:28;;;;;;;9.90;5.10;;;;;;;36.21;20.04;101778.97;4933491;29;20043;-75
2022/08/12 11:49:54;;;;;;;11.13;6.03;;;;;;;36.47;20.46;101769.66;4916750;29;20446;-76
2022/08/12 11:52:19;;;;;;;13.37;6.20;;;;;;;37.13;19.47;101771.97;4933467;29;20334;-76
2022/08/12 11:54:45;;;;;;;21.93;6.10;;;;;;;37.52;19.07;101767.06;4934696;29;20023;-75
2022/08/12 11:57:10;;;;;;;21.63;5.83;;;;;;;37.06;19.77;101772.50;4916413;29;20024;-76
2022/08/12 11:59:35;;;;;;;12.70;5.93;;;;;;;36.81;20.45;101765.88;4934159;29;20024;-77
2022/08/12 12:02:01;;;;;;;15.10;5.57;;;;;;;37.03;19.61;101769.56;4938669;29;20395;-77
2022/08/12 12:04:26;;;;;;;18.87;5.57;;;;;;;37.67;19.08;101763.63;4936901;29;20391;-76
2022/08/12 12:06:51;;;;;;;22.97;5.70;;;;;;;37.46;19.15;101762.81;4919503;29;20162;-76
2022/08/12 12:09:16;;;;;;;16.40;5.90;;;;;;;37.63;18.68;101768.31;4937000;29;20032;-76
2022/08/12 12:11:42;;;;;;;11.13;5.10;;;;;;;37.90;17.07;101766.06;4940194;29;20133;-75
2022/08/12 12:14:08;;;;;;;25.10;6.13;;;;;;;38.31;17.53;101759.47;4939002;29;20028;-76
2022/08/12 12:16:34;;;;;;;17.48;5.35;;;;;;;38.77;16.17;101753.78;4938383;29;20316;-75
2022/08/12 12:18:59;;;;;;;10.88;5.18;;;;;;;38.89;16.26;101762.22;4940786;29;20426;-80
2022/08/12 12:21:25;;;;;;;19.87;6.20;;;;;;;38.83;17.42;101763.63;4940914;29;20443;-76
2022/08/12 12:23:50;;;;;;;16.13;5.73;;;;;;;36.92;18.83;101747.50;4936786;29;20111;-77
2022/08/12 12:26:15;;;;;;;17.80;5.57;;;;;;;37.59;19.01;101750.47;4936765;29;20083;-76
2022/08/12 12:28:41;;;;;;;21.70;5.20;;;;;;;37.78;18.67;101750.78;4937190;29;20053;-76
2022/08/12 12:31:07;;;;;;;15.90;5.90;;;;;;;37.84;18.69;101742.97;4938061;29;20034;-76
2022/08/12 12:33:33;;;;;;;15.27;5.40;;;;;;;37.94;18.08;101745.34;4936242;29;20048;-76
2022/08/12 12:35:58;;;;;;;16.75;5.70;;;;;;;37.67;18.82;101752.38;4936480;29;20632;-76
2022/08/12 12:38:24;;;;;;;17.73;5.10;;;;;;;37.78;18.59;101750.78;4935630;29;20144;-75
2022/08/12 12:40:49;;;;;;;13.37;6.17;;;;;;;37.73;18.25;101739.78;4939661;29;20082;-77
2022/08/12 12:43:15;;;;;;;22.43;5.73;;;;;;;37.87;18.67;101739.47;4940341;29;20051;-75
2022/08/12 12:45:41;;;;;;;;;;;;;;;38.00;18.62;101740.34;4938478;29;20028;-76
2022/08/12 12:48:11;;;;;;;;;;;;;;;38.03;18.48;101731.22;4936957;29;19922;-76
2022/08/12 12:50:42;;;;;;;37.38;6.28;;;;;;;37.97;18.65;101736.25;4936229;29;19915;-76
2022/08/12 12:53:08;;;;;;;21.80;5.95;;;;;;;38.55;17.79;101729.75;4938466;29;20454;-76
2022/08/12 12:55:34;;;;;;;18.92;5.88;;;;;;;38.58;18.04;101721.47;4936395;29;20039;-75
2022/08/12 12:58:04;;;;;;;19.33;5.78;;;;;;;38.84;17.62;101731.53;4921177;29;20431;-76
2022/08/12 13:00:34;;;;;;;17.27;6.20;;;;;;;38.44;17.50;101723.78;4936203;29;20030;-76
2022/08/12 13:02:59;;;;;;;20.70;5.40;;;;;;;38.47;17.61;101720.28;4935065;29;20030;-75
2022/08/12 13:05:25;;;;;;;18.30;5.57;;;;;;;38.71;17.63;101721.44;4919643;29;20110;-76
2022/08/12 13:07:57;;;;;;;12.73;5.32;;;;;;;37.96;17.59;101719.69;4941178;29;20035;-75
2022/08/12 13:10:24;;;;;;;23.17;6.10;;;;;;;36.14;19.14;101714.19;4943546;28;20098;-75